Fort Recovery, OH

6:21 AM EDT on August 31, 2014 (GMT -0400)
Darke County | Change Station
CLOSE
Current Station
Airport
Location: Versailles,
Elevation: 1007 ft
Nearby Weather Stations

Elev 1007 ft 40.20 °N, 84.53 °W | Updated 26 minutes ago

Light Rain
Light Rain
70 °F
Feels Like 70 °F
N
8
Wind Variable Wind from SW

Today
High -- | Low -- °F
--% Chance of Precip.
Yesterday
High -- | Low -- °F
Precip. -- in
7:05 AM 8:12 PM
Waxing Crescent, 29% visible
Pressure 30.01 in
Visibility 10.0 miles
Clouds Scattered Clouds 2200 ft
Mostly Cloudy 4400 ft
Overcast 5500 ft
Dew Point 68 °F
Humidity 94%
Rainfall 0.00 in
Snow Depth Not available.
UV 0 out of 12
Pollen 10.40 out of 12
Ozone Good
PM2.5 Moderate
Flu Activity Not available.
METAR KVES 310955Z AUTO 23007KT 10SM -RA SCT022 BKN044 OVC055 21/20 A3001 RMK AO2

More Conditions Fewer Conditions

Pressure 30.01 in
Visibility 10.0 miles
Clouds Scattered Clouds 2200 ft
Mostly Cloudy 4400 ft
Overcast 5500 ft
Dew Point 68 °F
Humidity 94%
Rainfall 0.00 in
Snow Depth Not available.
UV 0 out of 12
Pollen 10.40 out of 12
Ozone Good
PM2.5 Moderate
Flu Activity Not available.
METAR KVES 310955Z AUTO 23007KT 10SM -RA SCT022 BKN044 OVC055 21/20 A3001 RMK AO2

More Conditions Fewer Conditions

10-Day Weather Forecast

Almanac

Astronomy

Aug. 31, 2014 Rise Set
Actual Time 7:05 AM EDT 8:12 PM EDT
Civil Twilight 6:37 AM EDT 8:40 PM EDT
Nautical Twilight 6:03 AM EDT 9:13 PM EDT
Astronomical Twilight 5:28 AM EDT 9:48 PM EDT
Moon 12:52 PM EDT 11:25 PM EDT
Length of Visible Light 14h 03m
Length of Day
13h 07m
Tomorrow will be 2m 33s shorter.
Waxing Crescent, 29% of the Moon is Illuminated
Today
Waxing Crescent
Sep 2
First Quarter
Sep 8
Full
Sep 15
Last Quarter
Sep 24
New

Today's Extremes

State Highs State Lows

Community

WunderPhotos

Upload Photos

1,748,834 photos uploaded!

Nearby

Air Quality

  Air Quality AQ Index Pollutant
Yesterday Moderate
PM2.5
Yesterday Moderate
OZONE
Current Moderate
PM2.5
Current Good
OZONE
Sunday Good
PM2.5
Sunday Good
OZONE
Monday Moderate
PM2.5
Monday Good
OZONE
Tuesday Moderate
PM2.5
Tuesday Good
OZONE

Snow Depth

Station Depth Elevation
No new snow has been reported.

Earthquake Activity

City Distance Mag. Time & Date
No recent earthquake activity has been reported nearby.
Minimum magnitude displayed is 2.5.

Coastal Water Temperatures

Place Temperature
No Stations Reporting

Nearby Weather Stations